createdAt,value
2024-03-27T00:00:17.802Z,38.07
2024-03-27T00:01:17.858Z,38.08
2024-03-27T00:02:17.938Z,38.06
2024-03-27T00:03:18.019Z,38.08
2024-03-27T00:04:18.115Z,38.07
2024-03-27T00:05:18.151Z,38.08
2024-03-27T00:06:18.226Z,38.08
2024-03-27T00:07:18.291Z,38.10
2024-03-27T00:08:18.375Z,38.07
2024-03-27T00:09:18.445Z,38.07
2024-03-27T00:10:18.516Z,38.07
2024-03-27T00:11:18.584Z,38.07
2024-03-27T00:12:18.676Z,38.06
2024-03-27T00:13:18.739Z,38.06
2024-03-27T00:14:18.963Z,38.06
2024-03-27T00:15:18.915Z,38.06
2024-03-27T00:16:18.964Z,38.06
2024-03-27T00:17:19.039Z,38.06
2024-03-27T00:18:19.110Z,38.07
2024-03-27T00:19:19.170Z,38.07
2024-03-27T00:20:19.262Z,38.06
2024-03-27T00:21:19.335Z,38.07
2024-03-27T00:22:19.410Z,38.09
2024-03-27T00:23:19.486Z,38.07
2024-03-27T00:24:19.566Z,38.10
2024-03-27T00:25:19.663Z,38.06
2024-03-27T00:26:19.689Z,38.08
2024-03-27T00:27:19.759Z,38.08
2024-03-27T00:28:19.840Z,38.08
2024-03-27T00:29:19.979Z,38.07
2024-03-27T00:30:20.537Z,38.06
2024-03-27T00:31:20.061Z,38.08
2024-03-27T00:32:20.142Z,38.07
2024-03-27T00:33:20.229Z,38.07
2024-03-27T00:34:20.312Z,38.07
2024-03-27T00:35:20.378Z,38.07
2024-03-27T00:36:20.495Z,38.06
2024-03-27T00:37:20.541Z,38.06
2024-03-27T00:38:20.604Z,38.08
2024-03-27T00:39:20.687Z,38.07
2024-03-27T00:40:20.757Z,38.09
2024-03-27T00:41:20.849Z,38.08
2024-03-27T00:42:20.942Z,38.08
2024-03-27T00:43:20.988Z,38.08
2024-03-27T00:44:21.081Z,38.08
2024-03-27T00:45:21.138Z,38.08
2024-03-27T00:46:21.212Z,38.07
2024-03-27T00:47:21.279Z,38.08
2024-03-27T00:48:21.370Z,38.08
2024-03-27T00:49:21.430Z,38.07
2024-03-27T00:50:21.510Z,38.07
2024-03-27T00:51:21.583Z,38.08
2024-03-27T00:52:21.659Z,38.08
2024-03-27T00:53:21.745Z,38.09
2024-03-27T00:54:21.834Z,38.09
2024-03-27T00:55:21.904Z,38.08
2024-03-27T00:56:27.056Z,38.08
2024-03-27T00:57:21.991Z,38.08
2024-03-27T00:58:21.987Z,38.08
2024-03-27T00:59:21.980Z,38.09
2024-03-27T01:00:21.983Z,38.09
2024-03-27T01:01:21.995Z,38.07
2024-03-27T01:02:22.022Z,38.08
2024-03-27T01:03:21.999Z,38.09
2024-03-27T01:04:22.008Z,38.11
2024-03-27T01:05:22.011Z,38.08
2024-03-27T01:06:22.022Z,38.08
2024-03-27T01:07:22.010Z,38.06
2024-03-27T01:08:22.098Z,38.08
2024-03-27T01:09:22.184Z,38.10
2024-03-27T01:10:22.246Z,38.07
2024-03-27T01:11:22.326Z,38.08
2024-03-27T01:12:22.402Z,38.10
2024-03-27T01:13:22.484Z,38.07
2024-03-27T01:14:22.555Z,38.08
2024-03-27T01:15:22.622Z,38.08
2024-03-27T01:16:22.705Z,38.08
2024-03-27T01:17:22.806Z,38.06
2024-03-27T01:18:22.876Z,38.07
2024-03-27T01:19:22.957Z,38.07
2024-03-27T01:20:23.032Z,38.09
2024-03-27T01:21:23.107Z,38.09
2024-03-27T01:22:23.186Z,38.07
2024-03-27T01:23:23.264Z,38.09
2024-03-27T01:24:23.361Z,38.06
2024-03-27T01:25:23.435Z,38.05
2024-03-27T01:26:23.520Z,38.06
2024-03-27T01:27:23.589Z,38.06
2024-03-27T01:28:23.675Z,38.08
2024-03-27T01:29:23.748Z,38.06
2024-03-27T01:30:23.820Z,38.07
2024-03-27T01:31:23.893Z,38.09
2024-03-27T01:32:23.990Z,38.08
2024-03-27T01:33:24.052Z,38.07
2024-03-27T01:34:24.152Z,38.05
2024-03-27T01:35:24.204Z,38.08
2024-03-27T01:36:24.280Z,38.09
2024-03-27T01:37:24.367Z,38.08
2024-03-27T01:38:24.449Z,38.08
2024-03-27T01:39:24.531Z,38.08
2024-03-27T01:40:24.596Z,38.06
2024-03-27T01:41:24.676Z,38.08
2024-03-27T01:42:24.775Z,38.09
2024-03-27T01:43:24.882Z,38.08
2024-03-27T01:44:24.939Z,38.08
2024-03-27T01:45:25.004Z,38.09
2024-03-27T01:46:25.080Z,38.09
2024-03-27T01:47:25.156Z,38.07
2024-03-27T01:48:25.239Z,38.09
2024-03-27T01:49:25.330Z,38.08
2024-03-27T01:50:25.412Z,38.08
2024-03-27T01:51:25.490Z,38.08
2024-03-27T01:52:25.579Z,38.08
2024-03-27T01:53:25.675Z,38.08
2024-03-27T01:54:25.726Z,38.08
2024-03-27T01:55:25.887Z,38.07
2024-03-27T01:56:25.888Z,38.07
2024-03-27T01:57:25.964Z,38.06
2024-03-27T01:58:26.044Z,38.06
2024-03-27T01:59:26.130Z,38.07
2024-03-27T02:00:26.324Z,38.06
2024-03-27T02:01:26.263Z,38.08
2024-03-27T02:02:26.379Z,38.08
2024-03-27T02:03:26.434Z,38.07
2024-03-27T02:04:26.502Z,38.06
2024-03-27T02:05:26.574Z,38.05
2024-03-27T02:06:26.700Z,38.07
2024-03-27T02:07:26.756Z,38.09
2024-03-27T02:08:26.832Z,38.08
2024-03-27T02:09:26.925Z,38.06
2024-03-27T02:10:26.981Z,38.08
2024-03-27T02:11:27.084Z,38.07
2024-03-27T02:12:27.164Z,38.07
2024-03-27T02:13:27.238Z,38.07
2024-03-27T02:14:27.309Z,38.05
2024-03-27T02:15:27.407Z,38.05
2024-03-27T02:16:27.461Z,38.07
2024-03-27T02:17:27.566Z,38.07
2024-03-27T02:18:27.605Z,38.06
2024-03-27T02:19:27.721Z,38.07
2024-03-27T02:20:27.783Z,38.08
2024-03-27T02:21:27.886Z,38.07
2024-03-27T02:22:28.011Z,38.07
2024-03-27T02:23:28.010Z,38.05
2024-03-27T02:24:28.090Z,38.08
2024-03-27T02:25:28.170Z,38.09
2024-03-27T02:26:28.247Z,38.09
2024-03-27T02:27:28.382Z,38.08
2024-03-27T02:28:28.400Z,38.07
2024-03-27T02:29:28.476Z,38.07
2024-03-27T02:30:28.554Z,38.09
2024-03-27T02:31:28.648Z,38.08
2024-03-27T02:32:28.732Z,38.07
2024-03-27T02:33:28.854Z,38.07
2024-03-27T02:34:28.870Z,38.06
2024-03-27T02:35:28.940Z,38.08
2024-03-27T02:36:29.059Z,38.07
2024-03-27T02:37:29.101Z,38.08
2024-03-27T02:38:29.206Z,38.07
2024-03-27T02:39:29.305Z,38.07
2024-03-27T02:40:29.359Z,38.09
2024-03-27T02:41:29.424Z,38.06
2024-03-27T02:42:29.526Z,38.08
2024-03-27T02:43:29.604Z,38.08
2024-03-27T02:44:29.690Z,38.08
2024-03-27T02:45:29.779Z,38.09
2024-03-27T02:46:29.845Z,38.07
2024-03-27T02:47:29.953Z,38.07
2024-03-27T02:48:30.033Z,38.06
2024-03-27T02:49:30.135Z,38.06
2024-03-27T02:50:30.171Z,38.07
2024-03-27T02:51:30.294Z,38.06
2024-03-27T02:52:30.345Z,38.08
2024-03-27T02:53:30.425Z,38.09
2024-03-27T02:54:30.509Z,38.08
2024-03-27T02:55:30.595Z,38.09
2024-03-27T02:56:30.686Z,38.08
2024-03-27T02:57:30.762Z,38.08
2024-03-27T02:58:30.851Z,38.08
2024-03-27T02:59:30.940Z,38.06
2024-03-27T03:00:31.085Z,38.06
2024-03-27T03:01:31.089Z,38.10
2024-03-27T03:02:31.190Z,38.06
2024-03-27T03:03:31.293Z,38.06
2024-03-27T03:04:31.355Z,38.06
2024-03-27T03:05:31.436Z,38.08
2024-03-27T03:06:31.532Z,38.09
2024-03-27T03:07:31.647Z,38.08
2024-03-27T03:08:31.719Z,38.07
2024-03-27T03:09:31.829Z,38.09
2024-03-27T03:10:31.883Z,38.07
2024-03-27T03:11:31.948Z,38.09
2024-03-27T03:12:32.040Z,38.09
2024-03-27T03:13:32.130Z,38.08
2024-03-27T03:14:32.211Z,38.07
2024-03-27T03:15:32.312Z,38.08
2024-03-27T03:16:32.386Z,38.09
2024-03-27T03:17:32.489Z,38.07
2024-03-27T03:18:32.570Z,38.06
2024-03-27T03:19:32.642Z,38.04
2024-03-27T03:20:32.720Z,38.07
2024-03-27T03:21:32.797Z,38.07
2024-03-27T03:22:32.870Z,38.06
2024-03-27T03:23:32.947Z,38.06
2024-03-27T03:24:33.042Z,38.07
2024-03-27T03:25:33.120Z,38.05
2024-03-27T03:26:33.202Z,38.06
2024-03-27T03:27:33.322Z,38.07
2024-03-27T03:28:33.387Z,38.08
2024-03-27T03:29:33.459Z,38.07
2024-03-27T03:30:33.574Z,38.07
2024-03-27T03:31:33.618Z,38.06
2024-03-27T03:32:33.702Z,38.06
2024-03-27T03:33:33.821Z,38.06
2024-03-27T03:34:33.882Z,38.06
2024-03-27T03:35:33.959Z,38.05
2024-03-27T03:36:34.071Z,38.07
2024-03-27T03:37:34.134Z,38.09
2024-03-27T03:38:34.210Z,38.08
2024-03-27T03:39:34.351Z,38.06
2024-03-27T03:40:34.385Z,38.08
2024-03-27T03:41:34.472Z,38.08
2024-03-27T03:42:34.594Z,38.08
2024-03-27T03:43:34.646Z,38.06
2024-03-27T03:44:34.729Z,38.06
2024-03-27T03:45:34.825Z,38.08
2024-03-27T03:46:34.902Z,38.10
2024-03-27T03:47:34.991Z,38.08
2024-03-27T03:48:35.084Z,38.10
2024-03-27T03:49:35.163Z,38.09
2024-03-27T03:50:35.236Z,38.09
2024-03-27T03:51:35.337Z,38.08
2024-03-27T03:52:35.388Z,38.10
2024-03-27T03:53:35.490Z,38.08
2024-03-27T03:54:35.614Z,38.09
2024-03-27T03:55:35.648Z,38.09
2024-03-27T03:56:35.733Z,38.07
2024-03-27T03:57:35.867Z,38.10
2024-03-27T03:58:35.918Z,38.10
2024-03-27T03:59:35.976Z,38.10
2024-03-27T04:00:36.059Z,38.09
2024-03-27T04:01:36.141Z,38.10
2024-03-27T04:02:36.232Z,38.10
2024-03-27T04:03:36.325Z,38.09
2024-03-27T04:04:36.392Z,38.09
2024-03-27T04:05:36.493Z,38.09
2024-03-27T04:06:36.602Z,38.09
2024-03-27T04:07:36.645Z,38.12
2024-03-27T04:08:36.719Z,38.07
2024-03-27T04:09:36.817Z,38.09
2024-03-27T04:10:36.896Z,38.09
2024-03-27T04:11:36.976Z,38.11
2024-03-27T04:12:39.326Z,38.09
2024-03-27T04:13:37.051Z,38.12
2024-03-27T04:14:37.064Z,38.08
2024-03-27T04:15:37.082Z,38.09
2024-03-27T04:16:37.054Z,38.10
2024-03-27T04:17:37.053Z,38.10
2024-03-27T04:18:37.080Z,38.09
2024-03-27T04:19:37.073Z,38.10
2024-03-27T04:20:37.107Z,38.08
2024-03-27T04:21:37.089Z,38.09
2024-03-27T04:22:37.051Z,38.09
2024-03-27T04:23:37.053Z,38.08
2024-03-27T04:24:37.081Z,38.10
2024-03-27T04:25:49.771Z,38.10
2024-03-27T04:26:38.063Z,38.12
2024-03-27T04:27:37.096Z,38.10
2024-03-27T04:28:37.058Z,38.12
2024-03-27T04:29:37.066Z,38.10
2024-03-27T04:30:37.084Z,38.10
2024-03-27T04:31:37.122Z,38.12
2024-03-27T04:32:37.124Z,38.12
2024-03-27T04:33:37.113Z,38.11
2024-03-27T04:34:37.091Z,38.12
2024-03-27T04:35:37.098Z,38.12
2024-03-27T04:36:37.125Z,38.11
2024-03-27T04:37:37.211Z,38.07
2024-03-27T04:38:37.281Z,38.09
2024-03-27T04:39:37.390Z,38.12
2024-03-27T04:40:44.641Z,38.19
2024-03-27T04:41:44.646Z,38.14
2024-03-27T04:42:44.628Z,38.14
2024-03-27T04:43:44.628Z,38.11
2024-03-27T04:44:44.632Z,38.12
2024-03-27T04:45:44.646Z,38.11
2024-03-27T04:46:44.639Z,38.12
2024-03-27T04:47:44.645Z,38.12
2024-03-27T04:48:44.639Z,38.09
2024-03-27T04:49:44.641Z,38.09
2024-03-27T04:50:44.634Z,38.09
2024-03-27T04:51:44.644Z,38.11
2024-03-27T04:52:44.645Z,38.10
2024-03-27T04:53:44.656Z,38.11
2024-03-27T04:54:49.713Z,38.11
2024-03-27T04:55:44.663Z,38.13
2024-03-27T04:56:44.649Z,38.13
2024-03-27T04:57:44.665Z,38.12
2024-03-27T04:58:44.686Z,38.14
2024-03-27T04:59:44.694Z,38.09
2024-03-27T05:00:44.697Z,38.12
2024-03-27T05:01:44.704Z,38.11
2024-03-27T05:02:44.705Z,38.13
2024-03-27T05:03:44.696Z,38.13
2024-03-27T05:04:44.792Z,38.12
2024-03-27T05:05:44.892Z,38.12
2024-03-27T05:06:44.980Z,38.11
2024-03-27T05:07:45.089Z,38.10
2024-03-27T05:08:45.189Z,38.11
2024-03-27T05:09:45.304Z,38.11
2024-03-27T05:10:45.387Z,38.10
2024-03-27T05:11:45.491Z,38.12
2024-03-27T05:12:45.598Z,38.12
2024-03-27T05:13:45.698Z,38.11
2024-03-27T05:14:45.814Z,38.12
2024-03-27T05:15:45.893Z,38.11
2024-03-27T05:16:45.982Z,38.10
2024-03-27T05:17:46.088Z,38.10
2024-03-27T05:18:46.181Z,38.13
2024-03-27T05:19:46.291Z,38.11
2024-03-27T05:20:46.374Z,38.12
2024-03-27T05:21:46.477Z,38.12
2024-03-27T05:22:46.577Z,38.09
2024-03-27T05:23:46.664Z,38.12
2024-03-27T05:24:48.410Z,38.11
2024-03-27T05:25:46.810Z,38.11
2024-03-27T05:26:46.839Z,38.10
2024-03-27T05:27:46.889Z,38.11
2024-03-27T05:28:46.934Z,38.09
2024-03-27T05:29:46.990Z,38.10
2024-03-27T05:30:47.015Z,38.10
2024-03-27T05:31:47.054Z,38.11
2024-03-27T05:32:47.087Z,38.10
2024-03-27T05:33:47.164Z,38.12
2024-03-27T05:34:47.249Z,38.09
2024-03-27T05:35:47.351Z,38.09
2024-03-27T05:36:47.428Z,38.10
2024-03-27T05:37:47.543Z,38.09
2024-03-27T05:38:47.638Z,38.10
2024-03-27T05:39:47.728Z,38.09
2024-03-27T05:40:47.831Z,38.08
2024-03-27T05:41:47.901Z,38.09
2024-03-27T05:42:48.008Z,38.07
2024-03-27T05:43:48.100Z,38.08
2024-03-27T05:44:48.239Z,38.08
2024-03-27T05:45:48.295Z,38.09
2024-03-27T05:46:48.381Z,38.07
2024-03-27T05:47:48.466Z,38.08
2024-03-27T05:48:48.568Z,38.07
2024-03-27T05:49:48.668Z,38.10
2024-03-27T05:50:48.764Z,38.08
2024-03-27T05:51:48.852Z,38.07
2024-03-27T05:52:48.929Z,38.07
2024-03-27T05:53:49.037Z,38.08
2024-03-27T05:54:49.119Z,38.08
2024-03-27T05:55:49.222Z,38.08
2024-03-27T05:56:49.299Z,38.08
2024-03-27T05:57:49.383Z,38.08
2024-03-27T05:58:49.507Z,38.09
2024-03-27T05:59:49.597Z,38.09
2024-03-27T06:00:49.669Z,38.08
2024-03-27T06:01:49.757Z,38.09
2024-03-27T06:02:49.852Z,38.07
2024-03-27T06:03:49.974Z,38.07
2024-03-27T06:04:50.071Z,38.08
2024-03-27T06:05:50.138Z,38.09
2024-03-27T06:06:50.258Z,38.07
2024-03-27T06:07:50.302Z,38.06
2024-03-27T06:08:50.438Z,38.06
2024-03-27T06:09:50.506Z,38.05
2024-03-27T06:10:50.624Z,38.07
2024-03-27T06:11:50.655Z,38.06
2024-03-27T06:12:50.726Z,38.05
2024-03-27T06:13:50.821Z,38.06
2024-03-27T06:15:50.966Z,38.06
2024-03-27T06:16:50.973Z,38.05
2024-03-27T06:17:51.008Z,38.06
2024-03-27T06:18:51.096Z,38.05
2024-03-27T06:19:51.091Z,38.06
2024-03-27T06:20:51.129Z,38.05
2024-03-27T06:21:51.140Z,38.05
2024-03-27T06:22:51.178Z,38.08
2024-03-27T06:23:51.220Z,38.06
2024-03-27T06:24:51.252Z,38.05
2024-03-27T06:25:51.275Z,38.05
2024-03-27T06:26:52.311Z,38.02
2024-03-27T06:27:51.335Z,38.04
2024-03-27T06:28:51.363Z,38.04
2024-03-27T06:29:51.410Z,38.03
2024-03-27T06:30:51.437Z,38.03
2024-03-27T06:31:51.468Z,38.00
2024-03-27T06:32:51.506Z,38.03
2024-03-27T06:33:51.587Z,38.05
2024-03-27T06:34:51.565Z,38.04
2024-03-27T06:35:51.613Z,38.01
2024-03-27T06:36:51.706Z,38.03
2024-03-27T06:37:51.782Z,38.02
2024-03-27T06:38:51.876Z,38.02
2024-03-27T06:39:51.964Z,38.02
2024-03-27T06:40:52.074Z,38.02
2024-03-27T06:41:52.137Z,38.01
2024-03-27T06:42:52.290Z,38.01
2024-03-27T06:43:52.302Z,38.01
2024-03-27T06:44:52.597Z,38.02
2024-03-27T06:46:13.496Z,38.00
2024-03-27T06:46:52.486Z,38.10
2024-03-27T06:47:52.489Z,38.02
2024-03-27T06:48:52.484Z,38.03
2024-03-27T06:49:52.484Z,38.02
2024-03-27T06:50:52.490Z,38.02
2024-03-27T06:51:52.489Z,37.98
2024-03-27T06:52:52.493Z,37.99
2024-03-27T06:53:52.503Z,37.99
2024-03-27T06:54:52.503Z,38.02
2024-03-27T06:55:52.502Z,38.00
2024-03-27T06:56:52.494Z,38.01
2024-03-27T06:57:52.493Z,37.99
2024-03-27T06:58:52.496Z,37.99
2024-03-27T06:59:52.503Z,38.01
2024-03-27T07:00:52.493Z,38.01
2024-03-27T07:01:52.499Z,38.00
2024-03-27T07:02:52.497Z,37.96
2024-03-27T07:03:52.489Z,37.96
2024-03-27T07:04:52.506Z,37.99
2024-03-27T07:05:52.506Z,37.96
2024-03-27T07:06:52.512Z,37.95
2024-03-27T07:07:52.492Z,37.95
2024-03-27T07:08:52.496Z,37.95
2024-03-27T07:09:52.501Z,37.93
2024-03-27T07:10:52.506Z,37.91
2024-03-27T07:11:52.509Z,37.93
2024-03-27T07:12:52.512Z,37.92
2024-03-27T07:13:54.282Z,37.93
2024-03-27T07:14:52.500Z,37.90
2024-03-27T07:15:52.548Z,37.93
2024-03-27T07:16:52.550Z,37.90
2024-03-27T07:17:52.555Z,37.90
2024-03-27T07:18:52.553Z,37.89
2024-03-27T07:19:52.559Z,37.93
2024-03-27T07:20:52.567Z,37.90
2024-03-27T07:21:52.557Z,37.91
2024-03-27T07:22:53.301Z,37.92
2024-03-27T07:23:52.555Z,37.90
2024-03-27T07:24:52.618Z,37.88
2024-03-27T07:25:52.581Z,37.92
2024-03-27T07:26:52.558Z,37.90
2024-03-27T07:27:52.551Z,37.88
2024-03-27T07:28:52.551Z,37.89
2024-03-27T07:29:52.564Z,37.85
2024-03-27T07:31:02.453Z,37.86
2024-03-27T07:31:53.597Z,37.86
2024-03-27T07:32:52.563Z,37.86
2024-03-27T07:33:52.552Z,37.85
2024-03-27T07:34:52.561Z,37.85
2024-03-27T07:35:52.558Z,37.85
2024-03-27T07:36:52.562Z,37.82
2024-03-27T07:37:52.568Z,37.88
2024-03-27T07:38:52.602Z,37.87
2024-03-27T07:39:52.606Z,37.90
2024-03-27T07:40:52.597Z,37.86
2024-03-27T07:41:52.604Z,37.87
2024-03-27T07:42:52.606Z,37.86
2024-03-27T07:43:52.610Z,37.82
2024-03-27T07:44:52.602Z,37.84
2024-03-27T07:45:52.660Z,37.84
2024-03-27T07:46:52.712Z,37.80
2024-03-27T07:47:52.792Z,37.77
2024-03-27T07:48:52.869Z,37.77
2024-03-27T07:49:52.958Z,37.80
2024-03-27T07:50:53.012Z,37.79
2024-03-27T07:51:53.090Z,37.82
2024-03-27T07:52:55.446Z,37.80
2024-03-27T07:53:53.164Z,37.78
2024-03-27T07:54:53.165Z,37.77
2024-03-27T07:55:53.178Z,37.80
2024-03-27T07:56:53.186Z,37.81
2024-03-27T07:57:53.183Z,37.81
2024-03-27T07:58:53.163Z,37.78
2024-03-27T07:59:53.165Z,37.75
2024-03-27T08:00:53.176Z,37.77
2024-03-27T08:01:53.175Z,37.78
2024-03-27T08:02:53.158Z,37.80
2024-03-27T08:03:53.164Z,37.78
2024-03-27T08:04:53.177Z,37.78
2024-03-27T08:05:53.171Z,37.78
2024-03-27T08:06:55.696Z,37.77
2024-03-27T08:07:53.177Z,37.79
2024-03-27T08:08:53.186Z,37.79
2024-03-27T08:09:53.781Z,37.75
2024-03-27T08:10:53.188Z,37.76
2024-03-27T08:11:53.182Z,37.72
2024-03-27T08:12:53.178Z,37.75
2024-03-27T08:13:53.188Z,37.75
2024-03-27T08:14:53.173Z,37.74
2024-03-27T08:15:53.182Z,37.74
2024-03-27T08:16:53.194Z,37.71
2024-03-27T08:17:53.185Z,37.71
2024-03-27T08:18:53.207Z,37.70
2024-03-27T08:19:53.187Z,37.71
2024-03-27T08:20:53.173Z,37.69
2024-03-27T08:21:53.177Z,37.71
2024-03-27T08:22:53.181Z,37.73
2024-03-27T08:23:53.218Z,37.74
2024-03-27T08:24:53.228Z,37.70
2024-03-27T08:25:53.226Z,37.68
2024-03-27T08:26:53.226Z,37.69
2024-03-27T08:27:53.294Z,37.68
2024-03-27T08:28:53.245Z,37.71
2024-03-27T08:29:53.231Z,37.69
2024-03-27T08:30:53.244Z,37.72
2024-03-27T08:31:53.237Z,37.70
2024-03-27T08:32:53.243Z,37.70
2024-03-27T08:33:53.243Z,37.72
2024-03-27T08:34:53.253Z,37.71
2024-03-27T08:35:53.228Z,37.69
2024-03-27T08:36:53.238Z,37.72
2024-03-27T08:38:03.262Z,37.71
2024-03-27T08:38:54.243Z,37.73
2024-03-27T08:39:53.253Z,37.72
2024-03-27T08:40:53.255Z,37.73
2024-03-27T08:41:53.237Z,37.72
2024-03-27T08:42:53.239Z,37.73
2024-03-27T08:43:53.245Z,37.74
2024-03-27T08:44:53.261Z,37.74
2024-03-27T08:45:53.268Z,37.74
2024-03-27T08:46:53.260Z,37.74
2024-03-27T08:47:53.274Z,37.74
2024-03-27T08:48:53.282Z,37.75
2024-03-27T08:49:53.283Z,37.75
2024-03-27T08:50:53.305Z,37.74
2024-03-27T08:51:53.299Z,37.77
2024-03-27T08:52:53.284Z,37.77
2024-03-27T08:53:55.332Z,37.80
2024-03-27T08:54:53.290Z,37.80
2024-03-27T08:55:53.290Z,37.77
2024-03-27T08:56:53.298Z,37.80
2024-03-27T08:57:53.316Z,37.81
2024-03-27T08:58:53.303Z,37.81
2024-03-27T08:59:54.337Z,37.80
2024-03-27T09:00:53.291Z,37.84
2024-03-27T09:01:53.295Z,37.83
2024-03-27T09:02:53.302Z,37.81
2024-03-27T09:03:53.307Z,37.82
2024-03-27T09:04:53.289Z,37.84
2024-03-27T09:05:55.320Z,37.81
2024-03-27T09:06:53.333Z,37.85
2024-03-27T09:07:53.346Z,37.85
2024-03-27T09:08:53.389Z,37.84
2024-03-27T09:09:53.350Z,37.81
2024-03-27T09:10:53.377Z,37.84
2024-03-27T09:11:55.768Z,37.82
2024-03-27T09:12:53.341Z,37.86
2024-03-27T09:14:00.603Z,37.90
2024-03-27T09:15:00.643Z,37.87
2024-03-27T09:16:00.607Z,37.83
2024-03-27T09:17:00.610Z,37.81
2024-03-27T09:18:00.630Z,37.82
2024-03-27T09:19:00.616Z,37.78
2024-03-27T09:20:00.631Z,37.81
2024-03-27T09:21:00.629Z,37.81
2024-03-27T09:22:00.620Z,37.81
2024-03-27T09:23:00.629Z,37.80
2024-03-27T09:24:00.623Z,37.82
2024-03-27T09:25:00.654Z,37.80
2024-03-27T09:26:00.636Z,37.79
2024-03-27T09:27:00.622Z,37.79
2024-03-27T09:28:00.637Z,37.79
2024-03-27T09:29:00.615Z,37.78
2024-03-27T09:30:02.574Z,37.79
2024-03-27T09:31:00.630Z,37.80
2024-03-27T09:32:00.641Z,37.79
2024-03-27T09:33:00.657Z,37.77
2024-03-27T09:34:00.633Z,37.79
2024-03-27T09:35:00.655Z,37.79
2024-03-27T09:36:02.833Z,37.78
2024-03-27T09:37:00.636Z,37.77
2024-03-27T09:38:00.672Z,37.82
2024-03-27T09:39:00.634Z,37.81
2024-03-27T09:40:00.641Z,37.81
2024-03-27T09:41:00.665Z,37.81
2024-03-27T09:42:00.653Z,37.83
2024-03-27T09:43:00.655Z,37.84
2024-03-27T09:44:00.642Z,37.80
2024-03-27T09:45:00.651Z,37.80
2024-03-27T09:46:00.650Z,37.79
2024-03-27T09:47:00.658Z,37.78
2024-03-27T09:48:00.666Z,37.81
2024-03-27T09:49:00.663Z,37.81
2024-03-27T09:50:00.669Z,37.83
2024-03-27T09:51:00.667Z,37.82
2024-03-27T09:52:00.661Z,37.82
2024-03-27T09:53:00.673Z,37.87
2024-03-27T09:54:00.663Z,37.85
2024-03-27T09:55:00.665Z,37.83
2024-03-27T09:56:00.684Z,37.87
2024-03-27T09:57:00.670Z,37.85
2024-03-27T09:58:00.664Z,37.85
2024-03-27T09:59:00.686Z,37.86
2024-03-27T10:00:00.719Z,37.87
2024-03-27T10:01:00.696Z,37.87
2024-03-27T10:02:00.678Z,37.89
2024-03-27T10:03:00.684Z,37.89
2024-03-27T10:04:00.663Z,37.90
2024-03-27T10:05:00.714Z,37.89
2024-03-27T10:06:00.678Z,37.90
2024-03-27T10:07:00.678Z,37.93
2024-03-27T10:08:00.731Z,37.93
2024-03-27T10:09:00.702Z,37.91
2024-03-27T10:10:00.708Z,37.93
2024-03-27T10:11:00.685Z,37.90
2024-03-27T10:12:00.683Z,37.93
2024-03-27T10:13:00.690Z,37.92
2024-03-27T10:14:00.697Z,37.93
2024-03-27T10:15:00.720Z,37.93
2024-03-27T10:16:00.703Z,37.94
2024-03-27T10:17:00.691Z,37.93
2024-03-27T10:18:00.696Z,37.95
2024-03-27T10:19:00.698Z,37.94
2024-03-27T10:20:00.730Z,37.93
2024-03-27T10:21:00.714Z,37.94
2024-03-27T10:22:00.708Z,37.96
2024-03-27T10:23:00.712Z,37.94
2024-03-27T10:24:00.697Z,37.94
2024-03-27T10:25:00.692Z,37.96
2024-03-27T10:26:00.701Z,37.93
2024-03-27T10:27:00.706Z,37.93
2024-03-27T10:28:00.711Z,37.95
2024-03-27T10:29:00.720Z,37.93
2024-03-27T10:30:00.714Z,37.94
2024-03-27T10:31:00.726Z,37.95
2024-03-27T10:32:00.709Z,37.94
2024-03-27T10:33:00.737Z,37.95
2024-03-27T10:34:00.791Z,37.92
2024-03-27T10:35:06.420Z,37.92
2024-03-27T10:36:01.881Z,37.93
2024-03-27T10:37:00.900Z,37.90
2024-03-27T10:38:00.861Z,37.93
2024-03-27T10:39:00.854Z,37.91
2024-03-27T10:40:00.879Z,37.91
2024-03-27T10:41:00.912Z,37.91
2024-03-27T10:42:00.880Z,37.90
2024-03-27T10:43:00.875Z,37.92
2024-03-27T10:44:00.865Z,37.90
2024-03-27T10:45:00.914Z,37.91
2024-03-27T10:46:00.861Z,37.89
2024-03-27T10:47:00.871Z,37.90
2024-03-27T10:48:00.868Z,37.91
2024-03-27T10:49:00.869Z,37.91
2024-03-27T10:50:00.924Z,37.90
2024-03-27T10:51:00.983Z,37.92
2024-03-27T10:52:01.041Z,37.93
2024-03-27T10:53:01.195Z,37.93
2024-03-27T10:54:01.228Z,37.95
2024-03-27T10:55:01.230Z,37.92
2024-03-27T10:56:01.269Z,37.91
2024-03-27T10:57:01.319Z,37.93
2024-03-27T10:58:01.386Z,37.94
2024-03-27T10:59:01.424Z,37.91
2024-03-27T11:00:01.482Z,37.89
2024-03-27T11:01:01.546Z,37.92
2024-03-27T11:02:01.610Z,37.94
2024-03-27T11:03:01.660Z,37.92
2024-03-27T11:04:01.736Z,37.91
2024-03-27T11:05:01.778Z,37.93
2024-03-27T11:06:01.831Z,37.88
2024-03-27T11:07:01.882Z,37.88
2024-03-27T11:08:01.937Z,37.89
2024-03-27T11:09:01.996Z,37.89
2024-03-27T11:10:02.066Z,37.89
2024-03-27T11:11:02.098Z,37.88
2024-03-27T11:12:02.162Z,37.89
2024-03-27T11:13:02.205Z,37.88
2024-03-27T11:14:02.271Z,37.88
2024-03-27T11:15:02.315Z,37.87
2024-03-27T11:16:02.356Z,37.88
2024-03-27T11:17:02.404Z,37.87
2024-03-27T11:18:02.482Z,37.88
2024-03-27T11:19:02.518Z,37.88
2024-03-27T11:20:02.569Z,37.88
2024-03-27T11:21:02.604Z,37.88
2024-03-27T11:22:02.663Z,37.90
2024-03-27T11:23:02.713Z,37.90
2024-03-27T11:24:02.761Z,37.89
2024-03-27T11:25:02.818Z,37.89
2024-03-27T11:26:02.866Z,37.88
2024-03-27T11:27:02.907Z,37.89
2024-03-27T11:28:02.971Z,37.91
2024-03-27T11:29:03.019Z,37.89
2024-03-27T11:30:03.064Z,37.87
2024-03-27T11:31:03.129Z,37.87
2024-03-27T11:32:03.171Z,37.88
2024-03-27T11:33:03.218Z,37.87
2024-03-27T11:34:03.282Z,37.89
2024-03-27T11:35:03.360Z,37.86
2024-03-27T11:36:03.371Z,37.87
2024-03-27T11:37:03.426Z,37.88
2024-03-27T11:38:03.496Z,37.86
2024-03-27T11:39:03.503Z,37.86
2024-03-27T11:40:03.566Z,37.87
2024-03-27T11:41:03.620Z,37.87
2024-03-27T11:42:03.655Z,37.89
2024-03-27T11:43:03.722Z,37.88
2024-03-27T11:44:03.763Z,37.87
2024-03-27T11:45:03.812Z,37.87
2024-03-27T11:46:04.208Z,37.85
2024-03-27T11:47:03.900Z,37.87
2024-03-27T11:48:03.971Z,37.84
2024-03-27T11:49:03.999Z,37.82
2024-03-27T11:50:04.040Z,37.84
2024-03-27T11:51:14.156Z,37.84
2024-03-27T11:52:04.088Z,37.86
2024-03-27T11:53:04.094Z,37.85
2024-03-27T11:54:04.100Z,37.83
2024-03-27T11:55:04.078Z,37.84
2024-03-27T11:56:04.090Z,37.80
2024-03-27T11:57:04.091Z,37.80
2024-03-27T11:58:04.093Z,37.82
2024-03-27T11:59:04.092Z,37.83
2024-03-27T12:00:04.131Z,37.82
2024-03-27T12:01:05.225Z,37.83
2024-03-27T12:02:04.091Z,37.84
2024-03-27T12:03:04.099Z,37.82
2024-03-27T12:04:04.096Z,37.80
2024-03-27T12:05:04.105Z,37.81
2024-03-27T12:06:04.111Z,37.82
2024-03-27T12:07:04.116Z,37.81
2024-03-27T12:08:05.088Z,37.82
2024-03-27T12:09:04.109Z,37.85
2024-03-27T12:10:04.102Z,37.82
2024-03-27T12:11:04.109Z,37.83
2024-03-27T12:12:04.121Z,37.83
2024-03-27T12:13:04.128Z,37.81
2024-03-27T12:14:04.162Z,37.85
2024-03-27T12:15:04.203Z,37.87
2024-03-27T12:16:04.210Z,37.86
2024-03-27T12:17:04.228Z,37.87
2024-03-27T12:18:04.216Z,37.86
2024-03-27T12:19:04.207Z,37.85
2024-03-27T12:20:04.216Z,37.87
2024-03-27T12:21:04.215Z,37.89
2024-03-27T12:22:04.212Z,37.88
2024-03-27T12:23:04.226Z,37.87
2024-03-27T12:24:04.210Z,37.89
2024-03-27T12:25:04.780Z,37.87
2024-03-27T12:26:04.238Z,37.87
2024-03-27T12:27:04.234Z,37.85
2024-03-27T12:28:06.156Z,37.86
2024-03-27T12:29:04.237Z,37.87
2024-03-27T12:30:04.234Z,37.86
2024-03-27T12:31:04.250Z,37.86
2024-03-27T12:32:04.223Z,37.84
2024-03-27T12:33:04.227Z,37.85
2024-03-27T12:34:04.236Z,37.89
2024-03-27T12:35:04.920Z,37.87
2024-03-27T12:36:04.230Z,37.89
2024-03-27T12:37:04.241Z,37.90
2024-03-27T12:38:04.233Z,37.88
2024-03-27T12:39:04.232Z,37.88
2024-03-27T12:40:04.230Z,37.85
2024-03-27T12:41:04.243Z,37.86
2024-03-27T12:42:04.244Z,37.84
2024-03-27T12:43:04.247Z,37.84
2024-03-27T12:44:04.260Z,37.86
2024-03-27T12:45:04.252Z,37.85
2024-03-27T12:46:04.257Z,37.83
2024-03-27T12:47:04.252Z,37.83
2024-03-27T12:48:04.243Z,37.82
2024-03-27T12:49:04.282Z,37.83
2024-03-27T12:50:04.252Z,37.84
2024-03-27T12:51:04.372Z,37.83
2024-03-27T12:52:04.308Z,37.84
2024-03-27T12:53:04.292Z,37.83
2024-03-27T12:54:04.293Z,37.83